»·PEaware :: DAL5837 KATL-KJAC

DAL5837 :: KATL-KJAC

FLIGHT INFORMATION

Flight Status: Arrived
Operator:
Delta Air Lines
More flights by this operator :: More flights under this callsign
Pilot: John M. (9732)
Aircraft: BOEING 757-200
(B752)
More flights by this aircraft type
Origin: KATL Hartsfield-Jackson Atlanta
United States
Destination: KJAC Jackson Hole
United States
More flights between these airports :: More routes between these airports
Route: CUTTN2 HANKO BUM PWE LBF BFF BOY DNW
File this flight plan on PilotEdge
Remarks: delta virtual Airlines
Altitude:
(Current/Filed)
38,000ft
Speed:
(Current/Filed)
450kts
Departed: 08-Feb-18 07:21 PM
Arrived: 08-Feb-18 09:23 PM
Distance/Time
Traveled:
1363nm/2:02
Distance/Time
To Go:
Arrived

Flight Plot

Page will automatically refresh every two minutes.

Flight plan parsing failed; only flown route is shown


Map Options




Map Legend


Flown Route
Filed Route
Departure Airport
Arrival Airport
Navaid (VOR, NDB)
Fix

Horizontal Profiles

Position Reports

Time Latitude Longitude Heading Altitude Ground
Speed
08-Feb-18 19:26 40.372047 -97.044620 284 38111ft 370kts
08-Feb-18 19:27 40.398125 -97.174974 284 38110ft 370kts
08-Feb-18 19:28 40.424118 -97.305742 284 38109ft 369kts
08-Feb-18 19:29 40.449876 -97.436162 284 38106ft 369kts
08-Feb-18 19:30 40.475618 -97.567346 284 38106ft 370kts
08-Feb-18 19:31 40.501165 -97.698395 283 38099ft 370kts
08-Feb-18 19:32 40.526564 -97.829548 283 38100ft 371kts
08-Feb-18 19:33 40.551962 -97.961560 283 38099ft 371kts
08-Feb-18 19:34 40.577121 -98.093214 283 38087ft 372kts
08-Feb-18 19:35 40.602144 -98.225034 283 38083ft 372kts
08-Feb-18 19:36 40.627182 -98.357834 283 38082ft 373kts
08-Feb-18 19:37 40.652002 -98.490379 283 38079ft 372kts
08-Feb-18 19:38 40.676613 -98.622709 283 38080ft 372kts
08-Feb-18 19:39 40.701152 -98.755581 282 38076ft 372kts
08-Feb-18 19:40 40.725460 -98.888115 282 38072ft 372kts
08-Feb-18 19:41 40.749702 -99.021216 282 38069ft 372kts
08-Feb-18 19:42 40.773718 -99.153994 282 38067ft 372kts
08-Feb-18 19:43 40.797575 -99.286833 282 38064ft 372kts
08-Feb-18 19:44 40.821363 -99.420259 282 38061ft 372kts
08-Feb-18 19:45 40.844933 -99.553394 282 38060ft 372kts
08-Feb-18 19:46 40.868423 -99.687053 282 38058ft 373kts
08-Feb-18 19:47 40.891683 -99.820367 282 38058ft 373kts
08-Feb-18 19:48 40.914799 -99.953834 282 38056ft 373kts
08-Feb-18 19:49 40.937826 -100.087822 283 38051ft 372kts
08-Feb-18 19:50 40.960616 -100.221314 283 38041ft 372kts
08-Feb-18 19:51 40.982884 -100.352779 283 38029ft 372kts
08-Feb-18 19:52 41.005362 -100.486477 283 38019ft 371kts
08-Feb-18 19:53 41.027602 -100.619767 283 38011ft 371kts
08-Feb-18 19:54 41.050712 -100.752918 287 38006ft 370kts
08-Feb-18 19:55 41.091165 -100.878012 292 38008ft 369kts
08-Feb-18 19:56 41.131498 -101.002964 292 38007ft 369kts
08-Feb-18 19:57 41.171768 -101.128266 292 38007ft 368kts
08-Feb-18 19:58 41.211703 -101.253112 292 38003ft 367kts
08-Feb-18 19:59 41.251422 -101.377852 292 37999ft 366kts
08-Feb-18 20:00 41.291061 -101.502920 292 37996ft 365kts
08-Feb-18 20:01 41.330342 -101.627431 292 37993ft 365kts
08-Feb-18 20:02 41.369390 -101.751776 291 37992ft 364kts
08-Feb-18 20:03 41.408362 -101.876459 291 37992ft 363kts
08-Feb-18 20:04 41.446979 -102.000579 291 37992ft 363kts
08-Feb-18 20:05 41.485426 -102.124733 291 37991ft 361kts
08-Feb-18 20:06 41.523556 -102.248432 291 37994ft 361kts
08-Feb-18 20:08 41.561548 -102.372263 291 37995ft 361kts
08-Feb-18 20:09 41.599535 -102.496663 291 37993ft 361kts
08-Feb-18 20:10 41.637245 -102.620729 291 38015ft 360kts
08-Feb-18 20:11 41.674853 -102.745049 291 38016ft 360kts
08-Feb-18 20:12 41.712136 -102.868887 291 38008ft 359kts
08-Feb-18 20:13 41.749182 -102.992509 291 38004ft 357kts
08-Feb-18 20:14 41.786094 -103.116273 291 38002ft 356kts
08-Feb-18 20:15 41.822629 -103.239356 292 37996ft 355kts
08-Feb-18 20:16 41.858910 -103.362164 291 37988ft 354kts
08-Feb-18 20:17 41.895224 -103.484977 293 37980ft 352kts
08-Feb-18 20:18 41.937262 -103.603539 294 37979ft 351kts
08-Feb-18 20:19 41.979049 -103.722019 294 37979ft 351kts
08-Feb-18 20:20 42.020809 -103.840807 294 37977ft 350kts
08-Feb-18 20:21 42.062273 -103.959275 294 37973ft 350kts
08-Feb-18 20:22 42.103727 -104.078218 294 37971ft 350kts
08-Feb-18 20:23 42.144932 -104.196955 294 37970ft 350kts
08-Feb-18 20:24 42.186026 -104.315879 294 37973ft 350kts
08-Feb-18 20:25 42.227161 -104.435434 294 37980ft 350kts
08-Feb-18 20:26 42.268049 -104.554784 294 37986ft 350kts
08-Feb-18 20:27 42.308881 -104.674492 294 37985ft 350kts
08-Feb-18 20:28 42.349468 -104.794002 294 37507ft 350kts
08-Feb-18 20:29 42.389964 -104.913759 294 36513ft 351kts
08-Feb-18 20:30 42.430594 -105.034440 294 35516ft 351kts
08-Feb-18 20:31 42.471008 -105.154998 293 34521ft 352kts
08-Feb-18 20:32 42.511369 -105.275959 293 33526ft 354kts
08-Feb-18 20:33 42.552030 -105.398354 293 32526ft 355kts
08-Feb-18 20:34 42.592154 -105.519690 294 31526ft 351kts
08-Feb-18 20:35 42.631863 -105.640280 294 30523ft 347kts
08-Feb-18 20:36 42.670897 -105.759364 293 29523ft 344kts
08-Feb-18 20:37 42.709554 -105.877818 293 28523ft 342kts
08-Feb-18 20:38 42.747989 -105.996101 293 27521ft 340kts
08-Feb-18 20:39 42.785926 -106.113389 293 26522ft 338kts
08-Feb-18 20:40 42.823531 -106.230147 293 25521ft 336kts
08-Feb-18 20:41 42.860956 -106.346855 293 24519ft 334kts
08-Feb-18 20:42 42.898000 -106.462877 293 24103ft 334kts
08-Feb-18 20:43 42.935076 -106.579511 293 24099ft 334kts
08-Feb-18 20:44 42.971911 -106.695901 293 24101ft 334kts
08-Feb-18 20:45 43.008643 -106.812478 293 24103ft 334kts
08-Feb-18 20:46 43.045367 -106.929544 293 24107ft 334kts
08-Feb-18 20:47 43.081781 -107.046141 293 24112ft 332kts
08-Feb-18 20:48 43.117925 -107.162386 293 24113ft 332kts
08-Feb-18 20:49 43.154062 -107.279129 293 24098ft 332kts
08-Feb-18 20:50 43.189966 -107.395646 293 24095ft 332kts
08-Feb-18 20:51 43.225716 -107.512169 293 24091ft 331kts
08-Feb-18 20:52 43.261396 -107.629003 293 24087ft 331kts
08-Feb-18 20:53 43.296837 -107.745559 293 24081ft 330kts
08-Feb-18 20:54 43.332185 -107.862345 293 24077ft 330kts
08-Feb-18 20:55 43.367277 -107.978823 293 24071ft 330kts
08-Feb-18 20:56 43.402200 -108.095241 293 24068ft 329kts
08-Feb-18 20:57 43.437023 -108.211869 293 24063ft 328kts
08-Feb-18 20:58 43.469370 -108.329262 287 24064ft 329kts
08-Feb-18 20:59 43.491771 -108.451851 287 24063ft 330kts
08-Feb-18 21:00 43.514770 -108.574323 286 23431ft 327kts
08-Feb-18 21:01 43.522074 -108.613509 286 23108ft 326kts
08-Feb-18 21:02 43.522074 -108.613509 286 23108ft 326kts
08-Feb-18 21:03 43.522074 -108.613509 286 23108ft 326kts
08-Feb-18 21:04 43.522074 -108.613509 286 23108ft 326kts
08-Feb-18 21:05 43.535396 -108.685181 286 22513ft 324kts
08-Feb-18 21:06 43.557503 -108.804692 286 21514ft 320kts
08-Feb-18 21:07 43.579206 -108.922787 285 20515ft 316kts
08-Feb-18 21:08 43.600604 -109.039934 285 19685ft 313kts
08-Feb-18 21:09 43.621674 -109.156049 285 19184ft 311kts
08-Feb-18 21:10 43.642578 -109.271954 285 18683ft 309kts
08-Feb-18 21:11 43.663139 -109.386657 285 18184ft 307kts
08-Feb-18 21:12 43.683444 -109.500675 284 17684ft 305kts
08-Feb-18 21:13 43.703592 -109.614502 284 17181ft 303kts
08-Feb-18 21:14 43.723108 -109.725484 284 16441ft 280kts
08-Feb-18 21:15 43.739884 -109.821408 283 15913ft 242kts
08-Feb-18 21:16 43.755707 -109.912352 283 15413ft 242kts
08-Feb-18 21:17 43.771381 -110.002897 283 14913ft 242kts
08-Feb-18 21:18 43.787016 -110.093684 282 14411ft 241kts
08-Feb-18 21:19 43.801888 -110.180480 282 14017ft 230kts
08-Feb-18 21:20 43.815687 -110.261395 281 13992ft 207kts
08-Feb-18 21:21 43.828549 -110.339622 273 13981ft 208kts
08-Feb-18 21:22 43.822421 -110.417953 266 13101ft 199kts
08-Feb-18 21:23 43.817569 -110.494603 265 12077ft 205kts
08-Feb-18 21:24 43.807174 -110.568789 248 10717ft 179kts
08-Feb-18 21:25 43.785292 -110.620943 236 9512ft 153kts
08-Feb-18 21:26 43.755966 -110.662074 217 8955ft 152kts
08-Feb-18 21:27 43.715069 -110.684436 197 8695ft 162kts
08-Feb-18 21:28 43.674930 -110.705286 199 7861ft 153kts
08-Feb-18 21:29 43.635724 -110.724326 201 6890ft 142kts
08-Feb-18 21:30 43.605368 -110.738861 198 6462ft 35kts
08-Feb-18 21:31 43.599590 -110.740588 103 6461ft 10kts
08-Feb-18 21:31 43.600553 -110.739454 19 6461ft 12kts
08-Feb-18 21:32 43.603147 -110.738214 45 6461ft 4kts
08-Feb-18 21:34 43.603143 -110.737459 104 6461ft 0kts

Navigation Log

Ident Type
Flight plan parsing failed, navigation log unavailable